Time;durP1;ratioP1;P1;durP2;ratioP2;P2;SDS_P1;SDS_P2;PMS_P1;PMS_P2;Temp;Humidity;BMP_temperature;BMP_pressure;BME280_temperature;BME280_humidity;BME280_pressure;Samples;Min_cycle;Max_cycle;Signal;HPM_P1;HPM_P2
2022/09/10 00:00:59;;;;;;;1.10;0.30;;;;;;;;;;4997263;28;20077;-70
2022/09/10 00:03:26;;;;;;;1.25;0.30;;;;;;;;;;4995844;28;20040;-70
2022/09/10 00:05:53;;;;;;;0.45;0.20;;;;;;;;;;4996863;28;20042;-70
2022/09/10 00:08:21;;;;;;;1.02;0.30;;;;;;;;;;4996965;28;20044;-70
2022/09/10 00:10:50;;;;;;;0.63;0.25;;;;;;;;;;4995831;28;20027;-68
2022/09/10 00:13:18;;;;;;;1.08;0.38;;;;;;;;;;4997136;28;20018;-69
2022/09/10 00:15:47;;;;;;;1.10;0.20;;;;;;;;;;4996968;28;20390;-69
2022/09/10 00:18:15;;;;;;;0.80;0.32;;;;;;;;;;4996771;28;20105;-69
2022/09/10 00:20:50;;;;;;;0.93;0.30;;;;;;;;;;4996911;28;20091;-70
2022/09/10 00:23:18;;;;;;;0.65;0.15;;;;;;;;;;4996701;28;20034;-69
2022/09/10 00:25:46;;;;;;;0.93;0.40;;;;;;;;;;4996762;28;20486;-69
2022/09/10 00:28:14;;;;;;;0.75;0.30;;;;;;;;;;4996682;28;20018;-69
2022/09/10 00:30:42;;;;;;;0.47;0.20;;;;;;;;;;4996586;28;20018;-70
2022/09/10 00:33:09;;;;;;;2.58;0.38;;;;;;;;;;4995278;28;20022;-70
2022/09/10 00:35:36;;;;;;;0.57;0.15;;;;;;;;;;4996812;28;20056;-70
2022/09/10 00:38:04;;;;;;;1.17;0.35;;;;;;;;;;4996378;28;20491;-69
2022/09/10 00:40:31;;;;;;;0.50;0.30;;;;;;;;;;4996453;28;20031;-70
2022/09/10 00:42:58;;;;;;;0.30;0.20;;;;;;;;;;4996523;28;20022;-70
2022/09/10 00:45:30;;;;;;;1.33;0.20;;;;;;;;;;4996440;28;20027;-70
2022/09/10 00:48:02;;;;;;;0.30;0.08;;;;;;;;;;4995049;28;20026;-70
2022/09/10 00:50:31;;;;;;;0.98;0.20;;;;;;;;;;4996177;28;20379;-69
2022/09/10 00:53:02;;;;;;;1.33;0.30;;;;;;;;;;4996253;28;20015;-68
2022/09/10 00:55:30;;;;;;;1.15;0.10;;;;;;;;;;4996418;28;20023;-69
2022/09/10 00:57:59;;;;;;;0.60;0.10;;;;;;;;;;4996420;28;20026;-69
2022/09/10 01:00:27;;;;;;;0.75;0.20;;;;;;;;;;4994891;28;20072;-69
2022/09/10 01:02:54;;;;;;;0.82;0.40;;;;;;;;;;4996120;28;20019;-69
2022/09/10 01:05:21;;;;;;;1.45;0.10;;;;;;;;;;4995957;28;20033;-69
2022/09/10 01:07:48;;;;;;;0.95;0.30;;;;;;;;;;4996106;28;20510;-67
2022/09/10 01:10:19;;;;;;;0.98;0.30;;;;;;;;;;4994577;28;20030;-71
2022/09/10 01:12:45;;;;;;;;;;;;;;;;;;4996690;28;20022;-69
2022/09/10 01:15:14;;;;;;;0.98;0.35;;;;;;;;;;4995183;28;19906;-69
2022/09/10 01:17:44;;;;;;;1.48;0.30;;;;;;;;;;4994704;28;20034;-69
2022/09/10 01:20:18;;;;;;;0.98;0.30;;;;;;;;;;4995071;28;20363;-69
2022/09/10 01:22:45;;;;;;;0.73;0.20;;;;;;;;;;4995681;28;20025;-68
2022/09/10 01:25:13;;;;;;;1.27;0.20;;;;;;;;;;4995693;28;20352;-68
2022/09/10 01:27:42;;;;;;;0.52;0.20;;;;;;;;;;4994056;28;20129;-69
2022/09/10 01:30:13;;;;;;;1.00;0.20;;;;;;;;;;4995234;28;20023;-70
2022/09/10 01:32:52;;;;;;;1.65;0.20;;;;;;;;;;4995613;28;20487;-69
2022/09/10 01:35:22;;;;;;;0.32;0.20;;;;;;;;;;4995583;28;20023;-70
2022/09/10 01:37:54;;;;;;;0.40;0.30;;;;;;;;;;4995593;28;20025;-69
2022/09/10 01:40:28;;;;;;;0.68;0.20;;;;;;;;;;4995476;28;20364;-69
2022/09/10 01:43:06;;;;;;;0.93;0.10;;;;;;;;;;4995694;28;20533;-70
2022/09/10 01:45:48;;;;;;;0.55;0.20;;;;;;;;;;4995475;28;20029;-69
2022/09/10 01:48:33;;;;;;;0.63;0.20;;;;;;;;;;4994008;28;20029;-68
2022/09/10 01:51:07;;;;;;;1.02;0.35;;;;;;;;;;4995242;28;20046;-70
2022/09/10 01:53:34;;;;;;;0.98;0.25;;;;;;;;;;4994817;28;20603;-70
2022/09/10 01:56:27;;;;;;;0.50;0.20;;;;;;;;;;4993701;28;20038;-70
2022/09/10 01:58:57;;;;;;;0.93;0.28;;;;;;;;;;4995121;28;20545;-70
2022/09/10 02:01:27;;;;;;;1.13;0.10;;;;;;;;;;4994610;28;20029;-70
2022/09/10 02:03:58;;;;;;;0.22;0.10;;;;;;;;;;4995204;28;20065;-70
2022/09/10 02:06:28;;;;;;;0.50;0.10;;;;;;;;;;4994871;28;20054;-70
2022/09/10 02:08:56;;;;;;;0.43;0.20;;;;;;;;;;4993795;28;20486;-70
2022/09/10 02:11:23;;;;;;;1.20;0.20;;;;;;;;;;4994429;28;20053;-69
2022/09/10 02:13:51;;;;;;;0.22;0.10;;;;;;;;;;4993439;28;20169;-70
2022/09/10 02:16:22;;;;;;;0.22;0.10;;;;;;;;;;4994950;28;20030;-68
2022/09/10 02:18:49;;;;;;;0.60;0.30;;;;;;;;;;4994773;28;20022;-69
2022/09/10 02:21:17;;;;;;;0.93;0.10;;;;;;;;;;4994539;28;20448;-68
2022/09/10 02:23:47;;;;;;;0.50;0.10;;;;;;;;;;4994038;28;20093;-69
2022/09/10 02:26:14;;;;;;;;;;;;;;;;;;4994888;28;20018;-67
2022/09/10 02:28:48;;;;;;;1.38;0.28;;;;;;;;;;4994479;28;20000;-68
2022/09/10 02:31:17;;;;;;;0.77;0.20;;;;;;;;;;4993140;28;20026;-68
2022/09/10 02:33:45;;;;;;;0.30;0.20;;;;;;;;;;4994175;28;20105;-68
2022/09/10 02:36:12;;;;;;;0.70;0.10;;;;;;;;;;4994535;28;20030;-68
2022/09/10 02:38:39;;;;;;;0.32;0.20;;;;;;;;;;4994518;28;20482;-68
2022/09/10 02:41:08;;;;;;;0.20;0.10;;;;;;;;;;4994142;28;20030;-68
2022/09/10 02:43:36;;;;;;;0.60;0.30;;;;;;;;;;4994042;28;20470;-68
2022/09/10 02:46:06;;;;;;;0.38;0.17;;;;;;;;;;4993884;28;20091;-68
2022/09/10 02:48:33;;;;;;;0.88;0.20;;;;;;;;;;4994384;28;20037;-68
2022/09/10 02:51:01;;;;;;;0.20;0.20;;;;;;;;;;4992336;28;20022;-68
2022/09/10 02:53:30;;;;;;;0.35;0.20;;;;;;;;;;4993965;28;20042;-69
2022/09/10 02:55:58;;;;;;;3.50;0.28;;;;;;;;;;4994100;28;20432;-69
2022/09/10 02:58:25;;;;;;;0.75;0.22;;;;;;;;;;4992595;28;20037;-69
2022/09/10 03:00:52;;;;;;;0.22;0.10;;;;;;;;;;4993883;28;20029;-69
2022/09/10 03:03:19;;;;;;;1.10;0.30;;;;;;;;;;4994223;28;20434;-68
2022/09/10 03:05:46;;;;;;;1.40;0.20;;;;;;;;;;4992246;28;20042;-68
2022/09/10 03:08:14;;;;;;;0.85;0.10;;;;;;;;;;4994036;28;20029;-68
2022/09/10 03:10:41;;;;;;;0.68;0.15;;;;;;;;;;4994079;28;20050;-69
2022/09/10 03:13:08;;;;;;;0.68;0.20;;;;;;;;;;4992796;28;20105;-67
2022/09/10 03:15:35;;;;;;;1.95;0.28;;;;;;;;;;4993721;28;20108;-68
2022/09/10 03:18:02;;;;;;;0.70;0.10;;;;;;;;;;4992234;28;20046;-69
2022/09/10 03:20:30;;;;;;;0.20;0.20;;;;;;;;;;4992523;28;20030;-70
2022/09/10 03:22:57;;;;;;;0.10;0.10;;;;;;;;;;4993883;28;20022;-70
2022/09/10 03:25:24;;;;;;;0.10;0.00;;;;;;;;;;4993576;28;20097;-67
2022/09/10 03:27:51;;;;;;;0.45;0.20;;;;;;;;;;4993644;28;20539;-68
2022/09/10 03:30:20;;;;;;;0.10;0.10;;;;;;;;;;4993570;28;20023;-68
2022/09/10 03:32:47;;;;;;;0.30;0.15;;;;;;;;;;4993529;28;20018;-68
2022/09/10 03:35:15;;;;;;;0.40;0.10;;;;;;;;;;4993450;28;20498;-70
2022/09/10 03:37:43;;;;;;;2.00;0.20;;;;;;;;;;4993268;28;20081;-69
2022/09/10 03:40:10;;;;;;;0.85;0.10;;;;;;;;;;4993511;28;20018;-68
2022/09/10 03:42:37;;;;;;;0.88;0.22;;;;;;;;;;4992062;28;20046;-69
2022/09/10 03:45:05;;;;;;;0.50;0.20;;;;;;;;;;4992042;28;20022;-69
2022/09/10 03:47:32;;;;;;;0.20;0.10;;;;;;;;;;4993249;28;20026;-69
2022/09/10 03:49:59;;;;;;;0.50;0.10;;;;;;;;;;4993346;28;20023;-69
2022/09/10 03:52:26;;;;;;;0.10;0.10;;;;;;;;;;4992111;28;20030;-68
2022/09/10 03:54:53;;;;;;;0.38;0.10;;;;;;;;;;4993234;28;20026;-67
2022/09/10 03:57:21;;;;;;;1.65;0.30;;;;;;;;;;4993327;28;20100;-70
2022/09/10 03:59:48;;;;;;;0.43;0.10;;;;;;;;;;4992087;28;20515;-70
2022/09/10 04:02:16;;;;;;;0.68;0.10;;;;;;;;;;4993229;28;20031;-70
2022/09/10 04:04:43;;;;;;;0.40;0.00;;;;;;;;;;4992062;28;20019;-70
2022/09/10 04:07:10;;;;;;;1.13;0.10;;;;;;;;;;4993146;28;20046;-71
2022/09/10 04:09:38;;;;;;;0.50;0.20;;;;;;;;;;4992227;28;20042;-71
2022/09/10 04:12:05;;;;;;;0.73;0.20;;;;;;;;;;4992682;28;20042;-70
2022/09/10 04:14:33;;;;;;;0.43;0.10;;;;;;;;;;4992960;28;20022;-70
2022/09/10 04:17:00;;;;;;;0.65;0.17;;;;;;;;;;4993164;28;20209;-68
2022/09/10 04:19:27;;;;;;;0.30;0.20;;;;;;;;;;4993392;28;20030;-69
2022/09/10 04:21:56;;;;;;;0.15;0.10;;;;;;;;;;4993418;28;20053;-69
2022/09/10 04:24:24;;;;;;;0.30;0.10;;;;;;;;;;4994554;28;20057;-68
2022/09/10 04:26:51;;;;;;;0.10;0.10;;;;;;;;;;4996788;28;20117;-69
2022/09/10 04:29:18;;;;;;;1.00;0.10;;;;;;;;;;4996876;28;20026;-68
2022/09/10 04:31:45;;;;;;;0.43;0.20;;;;;;;;;;4996610;28;20045;-69
2022/09/10 04:34:13;;;;;;;0.40;0.35;;;;;;;;;;4996506;28;20022;-69
2022/09/10 04:36:40;;;;;;;0.68;0.28;;;;;;;;;;4996600;28;20030;-69
2022/09/10 04:39:07;;;;;;;1.17;0.35;;;;;;;;;;4996611;28;20022;-70
2022/09/10 04:41:34;;;;;;;0.38;0.20;;;;;;;;;;4996530;28;20430;-69
2022/09/10 04:44:02;;;;;;;1.38;0.20;;;;;;;;;;4995250;28;20108;-69
2022/09/10 04:46:29;;;;;;;0.88;0.10;;;;;;;;;;4993326;28;20027;-70
2022/09/10 04:48:56;;;;;;;0.68;0.30;;;;;;;;;;4995709;28;20014;-68
2022/09/10 04:51:24;;;;;;;0.40;0.10;;;;;;;;;;4996322;28;20443;-68
2022/09/10 04:53:51;;;;;;;0.50;0.20;;;;;;;;;;4996260;28;20482;-70
2022/09/10 04:56:19;;;;;;;1.02;0.10;;;;;;;;;;4996042;28;20029;-69
2022/09/10 04:58:47;;;;;;;1.50;0.32;;;;;;;;;;4996273;28;20418;-70
2022/09/10 05:01:14;;;;;;;0.55;0.10;;;;;;;;;;4996049;28;20054;-69
2022/09/10 05:03:41;;;;;;;0.50;0.10;;;;;;;;;;4996102;28;20072;-70
2022/09/10 05:06:08;;;;;;;0.25;0.10;;;;;;;;;;4995662;28;20121;-68
2022/09/10 05:08:36;;;;;;;0.80;0.10;;;;;;;;;;4996366;28;20072;-70
2022/09/10 05:11:03;;;;;;;0.75;0.20;;;;;;;;;;4996276;28;20490;-68
2022/09/10 05:13:30;;;;;;;0.80;0.20;;;;;;;;;;4996126;28;20066;-69
2022/09/10 05:16:00;;;;;;;0.55;0.10;;;;;;;;;;4994554;28;20034;-68
2022/09/10 05:18:27;;;;;;;0.35;0.20;;;;;;;;;;4994540;28;20506;-69
2022/09/10 05:20:55;;;;;;;0.10;0.10;;;;;;;;;;4995814;28;20479;-69
2022/09/10 05:23:22;;;;;;;0.40;0.10;;;;;;;;;;4995760;28;20072;-69
2022/09/10 05:25:50;;;;;;;0.40;0.10;;;;;;;;;;4995578;28;20037;-69
2022/09/10 05:28:17;;;;;;;0.30;0.20;;;;;;;;;;4995513;28;20018;-69
2022/09/10 05:30:47;;;;;;;0.55;0.30;;;;;;;;;;4994407;28;20046;-69
2022/09/10 05:33:15;;;;;;;0.10;0.10;;;;;;;;;;4995696;28;20586;-69
2022/09/10 05:35:42;;;;;;;0.60;0.22;;;;;;;;;;4993227;28;20076;-68
2022/09/10 05:38:11;;;;;;;0.65;0.25;;;;;;;;;;4995443;28;20031;-68
2022/09/10 05:40:38;;;;;;;1.25;0.10;;;;;;;;;;4995518;28;20054;-68
2022/09/10 05:43:06;;;;;;;0.40;0.10;;;;;;;;;;4994103;28;20467;-68
2022/09/10 05:45:33;;;;;;;1.27;0.15;;;;;;;;;;4995248;28;20442;-68
2022/09/10 05:48:00;;;;;;;0.13;0.10;;;;;;;;;;4995553;28;20033;-68
2022/09/10 05:50:29;;;;;;;0.57;0.10;;;;;;;;;;4995296;28;20023;-68
2022/09/10 05:52:56;;;;;;;1.63;0.30;;;;;;;;;;4995317;28;20023;-68
2022/09/10 05:55:23;;;;;;;0.32;0.10;;;;;;;;;;4995154;28;20389;-67
2022/09/10 05:57:50;;;;;;;1.02;0.20;;;;;;;;;;4995257;28;20023;-68
2022/09/10 06:00:18;;;;;;;1.27;0.20;;;;;;;;;;4993861;28;20030;-68
2022/09/10 06:02:45;;;;;;;0.73;0.15;;;;;;;;;;4995075;28;20102;-67
2022/09/10 06:05:12;;;;;;;0.38;0.10;;;;;;;;;;4994733;28;20026;-68
2022/09/10 06:07:39;;;;;;;1.25;0.20;;;;;;;;;;4994715;28;20034;-67
2022/09/10 06:10:07;;;;;;;0.30;0.10;;;;;;;;;;4994735;28;20031;-69
2022/09/10 06:12:34;;;;;;;1.13;0.20;;;;;;;;;;4994689;28;20050;-68
2022/09/10 06:15:02;;;;;;;0.38;0.20;;;;;;;;;;4993455;28;20031;-69
2022/09/10 06:17:29;;;;;;;0.35;0.10;;;;;;;;;;4994695;28;20057;-69
2022/09/10 06:19:56;;;;;;;0.88;0.30;;;;;;;;;;4994807;28;20549;-69
2022/09/10 06:22:24;;;;;;;1.13;0.10;;;;;;;;;;4994172;28;20026;-69
2022/09/10 06:24:52;;;;;;;0.40;0.10;;;;;;;;;;4993540;28;20034;-69
2022/09/10 06:27:22;;;;;;;0.47;0.10;;;;;;;;;;4994273;28;20018;-68
2022/09/10 06:29:50;;;;;;;0.70;0.30;;;;;;;;;;4993437;28;20018;-68
2022/09/10 06:32:17;;;;;;;0.13;0.03;;;;;;;;;;4993026;28;20042;-68
2022/09/10 06:34:44;;;;;;;0.50;0.20;;;;;;;;;;4994397;28;20050;-69
2022/09/10 06:37:12;;;;;;;0.40;0.10;;;;;;;;;;4993164;28;20026;-70
2022/09/10 06:39:39;;;;;;;0.70;0.10;;;;;;;;;;4992928;28;20026;-68
2022/09/10 06:42:06;;;;;;;0.50;0.20;;;;;;;;;;4994300;28;20033;-69
2022/09/10 06:44:33;;;;;;;0.40;0.10;;;;;;;;;;4993010;28;20034;-67
2022/09/10 06:47:01;;;;;;;0.20;0.10;;;;;;;;;;4993925;28;20502;-68
2022/09/10 06:49:31;;;;;;;0.30;0.20;;;;;;;;;;4994083;28;20038;-68
2022/09/10 06:51:58;;;;;;;0.20;0.15;;;;;;;;;;4994153;28;20019;-69
2022/09/10 06:54:25;;;;;;;0.30;0.10;;;;;;;;;;4994210;28;20026;-69
2022/09/10 06:56:52;;;;;;;0.35;0.10;;;;;;;;;;4992622;28;20053;-70
2022/09/10 06:59:20;;;;;;;0.20;0.03;;;;;;;;;;4993967;28;20107;-69
2022/09/10 07:01:48;;;;;;;0.10;0.10;;;;;;;;;;4994018;28;20106;-68
2022/09/10 07:04:15;;;;;;;0.35;0.20;;;;;;;;;;4993839;28;20022;-68
2022/09/10 07:06:42;;;;;;;0.63;0.28;;;;;;;;;;4993965;28;20458;-71
2022/09/10 07:09:09;;;;;;;1.60;0.65;;;;;;;;;;4993761;28;20023;-69
2022/09/10 07:11:36;;;;;;;0.63;0.30;;;;;;;;;;4993763;28;20089;-67
2022/09/10 07:14:03;;;;;;;0.30;0.28;;;;;;;;;;4992325;28;20023;-67
2022/09/10 07:16:31;;;;;;;1.20;0.30;;;;;;;;;;4992411;28;20094;-68
2022/09/10 07:18:59;;;;;;;0.47;0.45;;;;;;;;;;4993651;28;20026;-67
2022/09/10 07:21:27;;;;;;;0.88;0.10;;;;;;;;;;4993580;28;20098;-69
2022/09/10 07:23:59;;;;;;;0.55;0.30;;;;;;;;;;4993589;28;20030;-67
2022/09/10 07:26:27;;;;;;;0.30;0.15;;;;;;;;;;4993495;28;20027;-68
2022/09/10 07:28:54;;;;;;;0.75;0.10;;;;;;;;;;4993521;28;20019;-68
2022/09/10 07:31:26;;;;;;;0.38;0.20;;;;;;;;;;4993359;28;20098;-67
2022/09/10 07:33:54;;;;;;;0.55;0.35;;;;;;;;;;4991979;28;20029;-68
2022/09/10 07:36:21;;;;;;;0.30;0.20;;;;;;;;;;4991598;28;20030;-68
2022/09/10 07:38:51;;;;;;;0.57;0.30;;;;;;;;;;4993529;28;20433;-69
2022/09/10 07:41:18;;;;;;;0.65;0.30;;;;;;;;;;4992325;28;20027;-67
2022/09/10 07:43:48;;;;;;;1.10;0.45;;;;;;;;;;4992003;28;20505;-70
2022/09/10 07:46:19;;;;;;;0.30;0.20;;;;;;;;;;4992114;28;20026;-67
2022/09/10 07:48:49;;;;;;;0.40;0.30;;;;;;;;;;4993976;28;20040;-69
2022/09/10 07:51:20;;;;;;;0.50;0.20;;;;;;;;;;4992121;28;20077;-67
2022/09/10 07:53:47;;;;;;;0.93;0.40;;;;;;;;;;4993547;28;20475;-67
2022/09/10 07:56:14;;;;;;;1.02;0.40;;;;;;;;;;4993349;28;20026;-69
2022/09/10 07:58:42;;;;;;;0.70;0.47;;;;;;;;;;4993694;28;20105;-68
2022/09/10 08:01:11;;;;;;;0.80;0.50;;;;;;;;;;4997159;28;20364;-70
2022/09/10 08:03:39;;;;;;;1.35;0.52;;;;;;;;;;4995962;28;20028;-67
2022/09/10 08:06:07;;;;;;;1.55;0.50;;;;;;;;;;4996751;28;20109;-68
2022/09/10 08:08:36;;;;;;;2.95;0.80;;;;;;;;;;4996990;28;20014;-67
2022/09/10 08:11:17;;;;;;;2.63;1.40;;;;;;;;;;4996811;28;20336;-68
2022/09/10 08:13:46;;;;;;;3.33;1.15;;;;;;;;;;4995753;28;20026;-68
2022/09/10 08:16:14;;;;;;;2.28;0.60;;;;;;;;;;4997054;28;20491;-69
2022/09/10 08:18:42;;;;;;;2.03;0.60;;;;;;;;;;4997182;28;20088;-68
2022/09/10 08:21:09;;;;;;;3.13;0.70;;;;;;;;;;4996919;28;20034;-68
2022/09/10 08:23:38;;;;;;;4.55;1.00;;;;;;;;;;4996959;28;20105;-68
2022/09/10 08:26:06;;;;;;;3.55;1.30;;;;;;;;;;4995518;28;20057;-67
2022/09/10 08:28:34;;;;;;;1.77;0.85;;;;;;;;;;4996701;28;20019;-67
2022/09/10 08:31:03;;;;;;;4.00;1.45;;;;;;;;;;4995540;28;20138;-68
2022/09/10 08:33:40;;;;;;;3.97;1.27;;;;;;;;;;4996645;28;20046;-68
2022/09/10 08:36:09;;;;;;;2.92;1.30;;;;;;;;;;4996805;28;20482;-68
2022/09/10 08:38:38;;;;;;;5.50;1.50;;;;;;;;;;4996654;28;20056;-68
2022/09/10 08:41:24;;;;;;;3.38;1.77;;;;;;;;;;4996443;28;20077;-67
2022/09/10 08:44:07;;;;;;;4.03;1.70;;;;;;;;;;4996648;28;20130;-67
2022/09/10 08:46:36;;;;;;;3.40;1.85;;;;;;;;;;4996506;28;20029;-67
2022/09/10 08:49:13;;;;;;;5.93;5.03;;;;;;;;;;4996535;28;20029;-68
2022/09/10 08:51:49;;;;;;;3.42;2.28;;;;;;;;;;4994631;28;20043;-65
2022/09/10 08:54:36;;;;;;;4.15;2.08;;;;;;;;;;4994336;28;20018;-67
2022/09/10 08:57:04;;;;;;;2.78;1.42;;;;;;;;;;4996293;28;20121;-67
2022/09/10 08:59:33;;;;;;;4.40;2.72;;;;;;;;;;4996643;28;20058;-67
2022/09/10 09:02:02;;;;;;;5.88;2.90;;;;;;;;;;4996139;28;20040;-67
2022/09/10 09:04:47;;;;;;;4.47;3.60;;;;;;;;;;4994472;28;20503;-68
2022/09/10 09:07:18;;;;;;;6.45;4.00;;;;;;;;;;4994666;28;20388;-68
2022/09/10 09:09:48;;;;;;;5.13;2.80;;;;;;;;;;4996190;28;20022;-68
2022/09/10 09:12:22;;;;;;;4.30;2.30;;;;;;;;;;4996072;28;20475;-69
2022/09/10 09:14:49;;;;;;;3.10;1.77;;;;;;;;;;4996519;28;20060;-69
2022/09/10 09:17:28;;;;;;;2.97;1.80;;;;;;;;;;4996352;28;20029;-68
2022/09/10 09:20:14;;;;;;;5.05;1.98;;;;;;;;;;4996018;28;20057;-68
2022/09/10 09:22:41;;;;;;;3.53;1.60;;;;;;;;;;4995988;28;20030;-67
2022/09/10 09:25:14;;;;;;;2.88;0.93;;;;;;;;;;4996258;28;20030;-69
2022/09/10 09:27:41;;;;;;;1.60;0.98;;;;;;;;;;4995913;28;20083;-68
2022/09/10 09:30:22;;;;;;;1.15;0.70;;;;;;;;;;4995855;28;20019;-68
2022/09/10 09:32:50;;;;;;;1.88;1.08;;;;;;;;;;4995645;28;20030;-68
2022/09/10 09:35:37;;;;;;;1.55;0.82;;;;;;;;;;4995719;28;20026;-68
2022/09/10 09:38:07;;;;;;;1.73;1.08;;;;;;;;;;4995944;28;20410;-68
2022/09/10 09:40:43;;;;;;;1.30;0.88;;;;;;;;;;4996107;28;20026;-68
2022/09/10 09:43:22;;;;;;;1.85;1.25;;;;;;;;;;4995492;28;20032;-67
2022/09/10 09:45:52;;;;;;;1.30;1.20;;;;;;;;;;4995460;28;20492;-67
2022/09/10 09:48:21;;;;;;;2.60;1.20;;;;;;;;;;4995415;28;20023;-67
2022/09/10 09:50:50;;;;;;;2.72;1.52;;;;;;;;;;4995450;28;20285;-68
2022/09/10 09:53:24;;;;;;;2.50;1.42;;;;;;;;;;4995236;28;20023;-67
2022/09/10 09:55:56;;;;;;;3.75;1.92;;;;;;;;;;4995239;28;20029;-67
2022/09/10 09:58:23;;;;;;;1.90;1.10;;;;;;;;;;4993898;28;20509;-66
2022/09/10 10:01:05;;;;;;;2.50;1.52;;;;;;;;;;4993836;28;20498;-67
2022/09/10 10:03:35;;;;;;;3.25;2.10;;;;;;;;;;4995201;28;20073;-68
2022/09/10 10:06:07;;;;;;;3.17;1.65;;;;;;;;;;4994559;28;20043;-68
2022/09/10 10:08:43;;;;;;;2.20;1.17;;;;;;;;;;4993008;28;20077;-68
2022/09/10 10:11:13;;;;;;;1.35;1.00;;;;;;;;;;4993862;28;20105;-68
2022/09/10 10:13:44;;;;;;;3.53;1.40;;;;;;;;;;4993928;28;20395;-68
2022/09/10 10:16:21;;;;;;;1.90;1.42;;;;;;;;;;4992646;28;20092;-68
2022/09/10 10:18:48;;;;;;;2.13;1.20;;;;;;;;;;4993976;28;20230;-67
2022/09/10 10:21:29;;;;;;;0.85;0.75;;;;;;;;;;4993311;28;20046;-67
2022/09/10 10:23:56;;;;;;;2.08;1.15;;;;;;;;;;4993882;28;20106;-67
2022/09/10 10:26:29;;;;;;;1.58;0.77;;;;;;;;;;4993620;28;20026;-67
2022/09/10 10:29:28;;;;;;;1.65;0.80;;;;;;;;;;4994722;28;20018;-68
2022/09/10 10:31:56;;;;;;;1.15;0.57;;;;;;;;;;4983024;28;20045;-68
2022/09/10 10:34:38;;;;;;;1.20;0.65;;;;;;;;;;4994764;28;20025;-68
2022/09/10 10:37:05;;;;;;;0.80;0.60;;;;;;;;;;4994799;28;20494;-67
2022/09/10 10:39:44;;;;;;;2.15;0.75;;;;;;;;;;4994510;28;20085;-67
2022/09/10 10:42:14;;;;;;;1.00;0.85;;;;;;;;;;4993166;28;20034;-68
2022/09/10 10:44:42;;;;;;;0.85;0.50;;;;;;;;;;4994521;28;20038;-67
2022/09/10 10:47:12;;;;;;;1.02;0.70;;;;;;;;;;4994479;28;20027;-67
2022/09/10 10:49:59;;;;;;;1.13;0.60;;;;;;;;;;4993040;28;20109;-67
2022/09/10 10:52:32;;;;;;;1.25;0.45;;;;;;;;;;4990449;28;20038;-67
2022/09/10 10:55:05;;;;;;;0.88;0.40;;;;;;;;;;4993115;28;20510;-68
2022/09/10 10:57:37;;;;;;;0.68;0.30;;;;;;;;;;4994554;28;20101;-67
2022/09/10 11:00:08;;;;;;;0.70;0.50;;;;;;;;;;4994104;28;20034;-67
2022/09/10 11:02:45;;;;;;;2.38;0.47;;;;;;;;;;4994246;28;20018;-68
2022/09/10 11:05:21;;;;;;;0.40;0.40;;;;;;;;;;4994221;28;20026;-66
2022/09/10 11:07:49;;;;;;;0.70;0.30;;;;;;;;;;4994356;28;20026;-67
2022/09/10 11:10:25;;;;;;;0.88;0.43;;;;;;;;;;4994459;28;20023;-67
2022/09/10 11:13:12;;;;;;;1.48;0.60;;;;;;;;;;4994264;28;20088;-67
2022/09/10 11:15:48;;;;;;;0.63;0.30;;;;;;;;;;4994110;28;20068;-67
2022/09/10 11:18:16;;;;;;;0.70;0.35;;;;;;;;;;4993981;28;20031;-68
2022/09/10 11:20:46;;;;;;;0.60;0.50;;;;;;;;;;4992654;28;20053;-67
2022/09/10 11:23:34;;;;;;;1.45;0.50;;;;;;;;;;4994281;28;20022;-67
2022/09/10 11:26:03;;;;;;;0.93;0.70;;;;;;;;;;4994037;28;20030;-67
2022/09/10 11:28:31;;;;;;;1.17;0.60;;;;;;;;;;4994119;28;20029;-66
2022/09/10 11:31:03;;;;;;;1.08;0.73;;;;;;;;;;4993863;28;20022;-66
2022/09/10 11:33:52;;;;;;;1.08;0.80;;;;;;;;;;4993054;28;20026;-67
2022/09/10 11:36:29;;;;;;;0.80;0.50;;;;;;;;;;4994090;28;20033;-66
2022/09/10 11:39:15;;;;;;;0.70;0.30;;;;;;;;;;4993916;28;20034;-67
2022/09/10 11:41:45;;;;;;;0.50;0.30;;;;;;;;;;4993781;28;20081;-67
2022/09/10 11:44:16;;;;;;;0.70;0.50;;;;;;;;;;4993828;28;20027;-66
2022/09/10 11:46:43;;;;;;;0.60;0.20;;;;;;;;;;4992317;28;20030;-66
2022/09/10 11:49:11;;;;;;;0.73;0.43;;;;;;;;;;4993653;28;20026;-65
2022/09/10 11:51:39;;;;;;;0.52;0.40;;;;;;;;;;4993630;28;20030;-66
2022/09/10 11:54:12;;;;;;;1.23;0.65;;;;;;;;;;4993942;28;20050;-66
2022/09/10 11:56:59;;;;;;;0.43;0.30;;;;;;;;;;4993729;28;20026;-66
2022/09/10 11:59:45;;;;;;;0.30;0.30;;;;;;;;;;4993530;28;20033;-66
2022/09/10 12:02:15;;;;;;;0.85;0.43;;;;;;;;;;4993370;28;20026;-66
2022/09/10 12:04:51;;;;;;;1.30;0.40;;;;;;;;;;4993338;28;20038;-66
2022/09/10 12:07:36;;;;;;;0.98;0.60;;;;;;;;;;4993199;28;20046;-66
2022/09/10 12:10:19;;;;;;;1.65;0.35;;;;;;;;;;4993275;28;20115;-65
2022/09/10 12:12:50;;;;;;;0.70;0.50;;;;;;;;;;4991948;28;20019;-66
2022/09/10 12:15:24;;;;;;;0.50;0.35;;;;;;;;;;4993449;28;20022;-66
2022/09/10 12:18:07;;;;;;;0.77;0.50;;;;;;;;;;4993150;28;20102;-65
2022/09/10 12:20:36;;;;;;;1.15;0.60;;;;;;;;;;4993218;28;20102;-66
2022/09/10 12:23:04;;;;;;;0.45;0.30;;;;;;;;;;4993233;28;20390;-65
2022/09/10 12:25:32;;;;;;;2.42;0.82;;;;;;;;;;4992121;28;20022;-65
2022/09/10 12:28:00;;;;;;;0.50;0.50;;;;;;;;;;4993381;28;20034;-65
2022/09/10 12:30:32;;;;;;;0.82;0.40;;;;;;;;;;4991789;28;20110;-65
2022/09/10 12:33:00;;;;;;;0.85;0.45;;;;;;;;;;4993199;28;20077;-65
2022/09/10 12:35:30;;;;;;;1.30;0.45;;;;;;;;;;4993113;28;20479;-64
2022/09/10 12:38:16;;;;;;;0.85;0.50;;;;;;;;;;4993189;28;20084;-67
2022/09/10 12:40:44;;;;;;;1.05;0.50;;;;;;;;;;4992928;28;20024;-66
2022/09/10 12:43:44;;;;;;;0.93;0.60;;;;;;;;;;4992951;28;20379;-66
2022/09/10 12:46:13;;;;;;;0.60;0.40;;;;;;;;;;4983442;28;20047;-66
2022/09/10 12:49:00;;;;;;;0.80;0.30;;;;;;;;;;4996357;28;20399;-65
2022/09/10 12:51:30;;;;;;;0.82;0.50;;;;;;;;;;4996265;28;20256;-67
2022/09/10 12:54:09;;;;;;;0.52;0.43;;;;;;;;;;4995034;28;20019;-66
2022/09/10 12:56:58;;;;;;;1.50;0.32;;;;;;;;;;4996693;28;20026;-67
2022/09/10 12:59:43;;;;;;;0.93;0.40;;;;;;;;;;4994605;28;20414;-67
2022/09/10 13:02:20;;;;;;;0.65;0.50;;;;;;;;;;4994970;28;20030;-66
2022/09/10 13:04:54;;;;;;;0.43;0.30;;;;;;;;;;4996013;28;20038;-66
2022/09/10 13:07:32;;;;;;;0.57;0.47;;;;;;;;;;4995965;28;20054;-66
2022/09/10 13:10:07;;;;;;;1.05;0.30;;;;;;;;;;4996118;28;20022;-65
2022/09/10 13:12:36;;;;;;;1.05;0.45;;;;;;;;;;4994766;28;20186;-65
2022/09/10 13:15:03;;;;;;;1.08;0.40;;;;;;;;;;4994703;28;20057;-67
2022/09/10 13:17:38;;;;;;;0.82;0.50;;;;;;;;;;4995954;28;20064;-67
2022/09/10 13:20:28;;;;;;;1.17;0.40;;;;;;;;;;4994678;28;20080;-67
2022/09/10 13:22:55;;;;;;;1.05;0.50;;;;;;;;;;4996208;28;20030;-67
2022/09/10 13:25:38;;;;;;;0.57;0.50;;;;;;;;;;4994525;28;20023;-67
2022/09/10 13:28:24;;;;;;;0.80;0.40;;;;;;;;;;4995875;28;20029;-66
2022/09/10 13:31:00;;;;;;;1.67;0.50;;;;;;;;;;4995752;28;20482;-67
2022/09/10 13:33:29;;;;;;;0.50;0.40;;;;;;;;;;4995914;28;20019;-67
2022/09/10 13:36:03;;;;;;;1.27;0.43;;;;;;;;;;4995745;28;20022;-67
2022/09/10 13:38:48;;;;;;;1.20;0.47;;;;;;;;;;4995405;28;20093;-66
2022/09/10 13:41:15;;;;;;;2.90;0.60;;;;;;;;;;4995512;28;20022;-65
2022/09/10 13:43:46;;;;;;;1.20;0.50;;;;;;;;;;4995698;28;20026;-66
2022/09/10 13:46:20;;;;;;;0.82;0.70;;;;;;;;;;4994033;28;20036;-66
2022/09/10 13:49:00;;;;;;;0.32;0.30;;;;;;;;;;4995482;28;20019;-66
2022/09/10 13:51:31;;;;;;;0.90;0.50;;;;;;;;;;4993982;28;20022;-65
2022/09/10 13:54:02;;;;;;;1.33;0.60;;;;;;;;;;4995211;28;20026;-65
2022/09/10 13:56:32;;;;;;;0.95;0.55;;;;;;;;;;4993123;28;20034;-67
2022/09/10 13:59:02;;;;;;;0.57;0.30;;;;;;;;;;4995196;28;20019;-66
2022/09/10 14:01:47;;;;;;;1.00;0.50;;;;;;;;;;4995193;28;20092;-66
2022/09/10 14:04:24;;;;;;;2.33;0.40;;;;;;;;;;4994903;28;20435;-67
2022/09/10 14:06:51;;;;;;;1.60;0.45;;;;;;;;;;4994670;28;20498;-67
2022/09/10 14:09:20;;;;;;;1.95;0.57;;;;;;;;;;4994929;28;20069;-66
2022/09/10 14:11:47;;;;;;;1.10;0.50;;;;;;;;;;4994869;28;20050;-66
2022/09/10 14:14:17;;;;;;;1.45;0.45;;;;;;;;;;4993605;28;20026;-66
2022/09/10 14:16:46;;;;;;;1.10;0.50;;;;;;;;;;4994780;28;20022;-66
2022/09/10 14:19:16;;;;;;;1.00;0.50;;;;;;;;;;4993391;28;20022;-65
2022/09/10 14:21:47;;;;;;;1.25;0.52;;;;;;;;;;4995314;28;20018;-66
2022/09/10 14:24:14;;;;;;;;;;;;;;;;;;4995139;28;20110;-66
2022/09/10 14:26:41;;;;;;;1.70;0.50;;;;;;;;;;4994832;28;19913;-66
2022/09/10 14:29:25;;;;;;;1.33;0.60;;;;;;;;;;4994582;28;20097;-66
2022/09/10 14:31:53;;;;;;;1.38;0.45;;;;;;;;;;4994456;28;20391;-66
2022/09/10 14:34:34;;;;;;;0.75;0.43;;;;;;;;;;4994732;28;20109;-66
2022/09/10 14:37:02;;;;;;;2.20;0.50;;;;;;;;;;4994660;28;20527;-65
2022/09/10 14:39:29;;;;;;;1.65;0.50;;;;;;;;;;4994481;28;20109;-66
2022/09/10 14:42:15;;;;;;;0.63;0.40;;;;;;;;;;4994525;28;20030;-65
2022/09/10 14:44:42;;;;;;;0.75;0.40;;;;;;;;;;4994364;28;20038;-65
2022/09/10 14:47:09;;;;;;;1.15;0.38;;;;;;;;;;4994085;28;20509;-65
2022/09/10 14:49:38;;;;;;;0.80;0.32;;;;;;;;;;4992862;28;20023;-66
2022/09/10 14:52:06;;;;;;;1.35;0.50;;;;;;;;;;4994153;28;20018;-65
2022/09/10 14:54:34;;;;;;;0.73;0.30;;;;;;;;;;4994251;28;20025;-66
2022/09/10 14:57:02;;;;;;;0.68;0.40;;;;;;;;;;4994157;28;20073;-66
2022/09/10 14:59:31;;;;;;;1.17;0.40;;;;;;;;;;4994351;28;20077;-65
2022/09/10 15:02:04;;;;;;;1.02;0.30;;;;;;;;;;4992851;28;20022;-65
2022/09/10 15:04:31;;;;;;;0.68;0.22;;;;;;;;;;4992592;28;20030;-66